sensor_id;sensor_type;location;lat;lon;timestamp;temperature;humidity
55219;DHT22;65463;43.864;20.136;2023-02-11T00:01:33;115.20;2176.00
55219;DHT22;65463;43.864;20.136;2023-02-11T01:19:40;90.20;2176.00
55219;DHT22;65463;43.864;20.136;2023-02-11T01:22:06;115.40;2176.00
55219;DHT22;65463;43.864;20.136;2023-02-11T01:24:32;115.30;2176.00
55219;DHT22;65463;43.864;20.136;2023-02-11T01:26:58;115.70;2176.00
55219;DHT22;65463;43.864;20.136;2023-02-11T01:29:24;115.70;2176.00
55219;DHT22;65463;43.864;20.136;2023-02-11T01:31:51;115.70;2176.00
55219;DHT22;65463;43.864;20.136;2023-02-11T01:34:17;115.30;2176.00
55219;DHT22;65463;43.864;20.136;2023-02-11T01:36:43;90.50;2176.00
55219;DHT22;65463;43.864;20.136;2023-02-11T01:39:10;90.40;2176.00
55219;DHT22;65463;43.864;20.136;2023-02-11T01:41:36;90.40;2176.00
55219;DHT22;65463;43.864;20.136;2023-02-11T01:44:26;90.40;2176.00
55219;DHT22;65463;43.864;20.136;2023-02-11T01:46:53;90.30;2176.00
55219;DHT22;65463;43.864;20.136;2023-02-11T01:49:43;115.50;2176.00
55219;DHT22;65463;43.864;20.136;2023-02-11T01:52:25;115.60;2176.00
55219;DHT22;65463;43.864;20.136;2023-02-11T01:54:56;115.40;2176.00
55219;DHT22;65463;43.864;20.136;2023-02-11T01:57:45;115.30;2176.00
55219;DHT22;65463;43.864;20.136;2023-02-11T02:10:41;141.00;2176.00
55219;DHT22;65463;43.864;20.136;2023-02-11T02:13:08;141.20;2176.00
55219;DHT22;65463;43.864;20.136;2023-02-11T02:15:36;140.80;2176.00
55219;DHT22;65463;43.864;20.136;2023-02-11T02:18:27;116.10;2176.00
55219;DHT22;65463;43.864;20.136;2023-02-11T02:24:00;116.10;2176.00
55219;DHT22;65463;43.864;20.136;2023-02-11T02:38:20;115.70;2176.00
55219;DHT22;65463;43.864;20.136;2023-02-11T02:40:52;115.70;2176.00
55219;DHT22;65463;43.864;20.136;2023-02-11T02:43:20;116.00;2176.00
55219;DHT22;65463;43.864;20.136;2023-02-11T02:45:47;115.90;2176.00
55219;DHT22;65463;43.864;20.136;2023-02-11T02:48:30;116.10;2176.00
55219;DHT22;65463;43.864;20.136;2023-02-11T02:56:45;141.30;2176.00
55219;DHT22;65463;43.864;20.136;2023-02-11T03:04:58;141.50;2176.00
55219;DHT22;65463;43.864;20.136;2023-02-11T03:10:09;140.90;2176.00
55219;DHT22;65463;43.864;20.136;2023-02-11T03:12:38;140.80;2176.00
55219;DHT22;65463;43.864;20.136;2023-02-11T03:15:07;116.00;2176.00
55219;DHT22;65463;43.864;20.136;2023-02-11T03:17:34;115.70;2176.00
55219;DHT22;65463;43.864;20.136;2023-02-11T03:20:04;115.70;2176.00
55219;DHT22;65463;43.864;20.136;2023-02-11T03:22:36;115.70;2176.00
55219;DHT22;65463;43.864;20.136;2023-02-11T03:25:03;115.70;2176.00
55219;DHT22;65463;43.864;20.136;2023-02-11T03:27:35;115.70;2176.00
55219;DHT22;65463;43.864;20.136;2023-02-11T03:30:19;115.70;2176.00
55219;DHT22;65463;43.864;20.136;2023-02-11T03:33:13;115.70;2176.00
55219;DHT22;65463;43.864;20.136;2023-02-11T03:35:59;116.00;2176.00
55219;DHT22;65463;43.864;20.136;2023-02-11T03:38:28;115.90;2176.00
55219;DHT22;65463;43.864;20.136;2023-02-11T03:40:57;115.90;2176.00
55219;DHT22;65463;43.864;20.136;2023-02-11T03:43:29;116.00;2176.00
55219;DHT22;65463;43.864;20.136;2023-02-11T03:45:56;115.90;2176.00
55219;DHT22;65463;43.864;20.136;2023-02-11T03:48:35;115.90;2176.00
55219;DHT22;65463;43.864;20.136;2023-02-11T03:51:06;141.00;2176.00
55219;DHT22;65463;43.864;20.136;2023-02-11T03:53:32;140.80;2176.00
55219;DHT22;65463;43.864;20.136;2023-02-11T03:56:02;141.00;2176.00
55219;DHT22;65463;43.864;20.136;2023-02-11T03:58:30;141.10;2176.00
55219;DHT22;65463;43.864;20.136;2023-02-11T04:00:56;141.20;2176.00
55219;DHT22;65463;43.864;20.136;2023-02-11T04:03:22;141.10;2176.00
55219;DHT22;65463;43.864;20.136;2023-02-11T04:05:48;140.90;2176.00
55219;DHT22;65463;43.864;20.136;2023-02-11T04:08:14;140.80;2176.00
55219;DHT22;65463;43.864;20.136;2023-02-11T04:10:40;141.10;2176.00
55219;DHT22;65463;43.864;20.136;2023-02-11T04:13:05;141.00;2176.00
55219;DHT22;65463;43.864;20.136;2023-02-11T04:15:31;140.80;2176.00
55219;DHT22;65463;43.864;20.136;2023-02-11T04:17:57;140.80;2176.00
55219;DHT22;65463;43.864;20.136;2023-02-11T04:20:23;140.80;2176.00
55219;DHT22;65463;43.864;20.136;2023-02-11T04:22:49;140.80;2176.00
55219;DHT22;65463;43.864;20.136;2023-02-11T04:25:15;140.80;2176.00
55219;DHT22;65463;43.864;20.136;2023-02-11T04:27:41;140.90;2176.00
55219;DHT22;65463;43.864;20.136;2023-02-11T04:30:09;140.90;2176.00
55219;DHT22;65463;43.864;20.136;2023-02-11T04:32:35;141.00;2176.00
55219;DHT22;65463;43.864;20.136;2023-02-11T04:35:01;141.00;2176.00
55219;DHT22;65463;43.864;20.136;2023-02-11T04:37:27;141.00;2176.00
55219;DHT22;65463;43.864;20.136;2023-02-11T04:39:53;141.00;2176.00
55219;DHT22;65463;43.864;20.136;2023-02-11T04:42:19;141.10;2176.00
55219;DHT22;65463;43.864;20.136;2023-02-11T04:44:45;141.10;2176.00
55219;DHT22;65463;43.864;20.136;2023-02-11T04:47:10;166.50;2176.00
55219;DHT22;65463;43.864;20.136;2023-02-11T04:49:38;167.00;2176.00
55219;DHT22;65463;43.864;20.136;2023-02-11T04:52:03;192.00;2176.00
55219;DHT22;65463;43.864;20.136;2023-02-11T04:54:29;192.10;2176.00
55219;DHT22;65463;43.864;20.136;2023-02-11T04:56:55;192.00;2176.00
55219;DHT22;65463;43.864;20.136;2023-02-11T04:59:21;167.20;2176.00
55219;DHT22;65463;43.864;20.136;2023-02-11T05:01:47;166.90;2176.00
55219;DHT22;65463;43.864;20.136;2023-02-11T05:04:14;141.70;2176.00
55219;DHT22;65463;43.864;20.136;2023-02-11T05:09:07;141.20;2176.00
55219;DHT22;65463;43.864;20.136;2023-02-11T05:11:33;166.60;2176.00
55219;DHT22;65463;43.864;20.136;2023-02-11T05:13:58;167.00;2176.00
55219;DHT22;65463;43.864;20.136;2023-02-11T05:16:24;167.00;2176.00
55219;DHT22;65463;43.864;20.136;2023-02-11T05:18:50;166.60;2176.00
55219;DHT22;65463;43.864;20.136;2023-02-11T05:21:18;166.40;2176.00
55219;DHT22;65463;43.864;20.136;2023-02-11T05:23:44;141.70;2176.00
55219;DHT22;65463;43.864;20.136;2023-02-11T05:26:11;141.60;2176.00
55219;DHT22;65463;43.864;20.136;2023-02-11T05:28:37;141.50;2176.00
55219;DHT22;65463;43.864;20.136;2023-02-11T05:31:04;141.50;2176.00
55219;DHT22;65463;43.864;20.136;2023-02-11T05:33:30;141.40;2176.00
55219;DHT22;65463;43.864;20.136;2023-02-11T05:36:03;141.40;2176.00
55219;DHT22;65463;43.864;20.136;2023-02-11T05:38:30;141.40;2176.00
55219;DHT22;65463;43.864;20.136;2023-02-11T05:40:56;141.40;2176.00
55219;DHT22;65463;43.864;20.136;2023-02-11T05:43:21;141.40;2176.00
55219;DHT22;65463;43.864;20.136;2023-02-11T05:45:49;141.60;2176.00
55219;DHT22;65463;43.864;20.136;2023-02-11T05:48:15;141.50;2176.00
55219;DHT22;65463;43.864;20.136;2023-02-11T05:50:42;141.40;2176.00
55219;DHT22;65463;43.864;20.136;2023-02-11T05:53:07;141.50;2176.00
55219;DHT22;65463;43.864;20.136;2023-02-11T05:55:33;141.50;2176.00
55219;DHT22;65463;43.864;20.136;2023-02-11T05:57:59;141.40;2176.00
55219;DHT22;65463;43.864;20.136;2023-02-11T06:00:25;141.40;2176.00
55219;DHT22;65463;43.864;20.136;2023-02-11T06:02:51;166.50;2176.00
55219;DHT22;65463;43.864;20.136;2023-02-11T06:05:17;166.50;2176.00
55219;DHT22;65463;43.864;20.136;2023-02-11T06:07:43;166.70;2176.00
55219;DHT22;65463;43.864;20.136;2023-02-11T06:10:09;167.00;2176.00
55219;DHT22;65463;43.864;20.136;2023-02-11T06:12:36;167.00;2176.00
55219;DHT22;65463;43.864;20.136;2023-02-11T06:15:02;192.00;2176.00
55219;DHT22;65463;43.864;20.136;2023-02-11T06:17:28;192.50;2176.00
55219;DHT22;65463;43.864;20.136;2023-02-11T06:19:58;192.50;2176.00
55219;DHT22;65463;43.864;20.136;2023-02-11T06:22:24;192.40;2176.00
55219;DHT22;65463;43.864;20.136;2023-02-11T06:24:51;167.00;2176.00
55219;DHT22;65463;43.864;20.136;2023-02-11T06:27:16;166.70;2176.00
55219;DHT22;65463;43.864;20.136;2023-02-11T06:29:44;141.70;2176.00
55219;DHT22;65463;43.864;20.136;2023-02-11T06:32:09;141.60;2176.00
55219;DHT22;65463;43.864;20.136;2023-02-11T06:34:35;141.40;2176.00
55219;DHT22;65463;43.864;20.136;2023-02-11T06:37:01;141.30;2176.00
55219;DHT22;65463;43.864;20.136;2023-02-11T06:39:27;141.30;2176.00
55219;DHT22;65463;43.864;20.136;2023-02-11T06:41:53;141.20;2176.00
55219;DHT22;65463;43.864;20.136;2023-02-11T06:44:19;141.10;2176.00
55219;DHT22;65463;43.864;20.136;2023-02-11T06:46:46;141.00;2176.00
55219;DHT22;65463;43.864;20.136;2023-02-11T06:49:12;141.60;2176.00
55219;DHT22;65463;43.864;20.136;2023-02-11T06:51:38;140.90;2176.00
55219;DHT22;65463;43.864;20.136;2023-02-11T06:54:04;115.50;2176.00
55219;DHT22;65463;43.864;20.136;2023-02-11T06:56:30;64.20;2201.60
55219;DHT22;65463;43.864;20.136;2023-02-11T06:58:56;38.60;2201.60
55219;DHT22;65463;43.864;20.136;2023-02-11T07:01:24;0.00;2022.40
55219;DHT22;65463;43.864;20.136;2023-02-11T07:03:50;0.70;1894.40
55219;DHT22;65463;43.864;20.136;2023-02-11T07:06:20;0.20;1920.00
55219;DHT22;65463;43.864;20.136;2023-02-11T07:08:59;0.80;1894.40
55219;DHT22;65463;43.864;20.136;2023-02-11T07:11:27;0.80;1868.80
55219;DHT22;65463;43.864;20.136;2023-02-11T07:13:56;51.40;1843.20
55219;DHT22;65463;43.864;20.136;2023-02-11T07:16:24;77.20;1689.60
55219;DHT22;65463;43.864;20.136;2023-02-11T07:18:50;77.10;1664.00
55219;DHT22;65463;43.864;20.136;2023-02-11T07:21:19;26.30;1740.80
55219;DHT22;65463;43.864;20.136;2023-02-11T07:23:45;0.70;1843.20
55219;DHT22;65463;43.864;20.136;2023-02-11T07:26:15;0.80;1945.60
55219;DHT22;65463;43.864;20.136;2023-02-11T07:28:42;0.90;1945.60
55219;DHT22;65463;43.864;20.136;2023-02-11T07:31:17;26.30;1843.20
55219;DHT22;65463;43.864;20.136;2023-02-11T07:33:43;0.40;1945.60
55219;DHT22;65463;43.864;20.136;2023-02-11T07:36:11;0.30;1945.60
55219;DHT22;65463;43.864;20.136;2023-02-11T07:38:38;13.00;2048.00
55219;DHT22;65463;43.864;20.136;2023-02-11T07:41:06;13.40;2124.80
55219;DHT22;65463;43.864;20.136;2023-02-11T07:43:33;13.40;2201.60
55219;DHT22;65463;43.864;20.136;2023-02-11T07:46:04;13.60;2176.00
55219;DHT22;65463;43.864;20.136;2023-02-11T07:48:30;13.20;2201.60
55219;DHT22;65463;43.864;20.136;2023-02-11T08:13:01;26.20;1971.20
55219;DHT22;65463;43.864;20.136;2023-02-11T08:15:27;25.60;1996.80
55219;DHT22;65463;43.864;20.136;2023-02-11T08:22:45;51.90;1920.00
55219;DHT22;65463;43.864;20.136;2023-02-11T08:25:11;51.80;1894.40
55219;DHT22;65463;43.864;20.136;2023-02-11T08:27:37;51.60;1920.00
55219;DHT22;65463;43.864;20.136;2023-02-11T08:32:29;77.30;1868.80
55219;DHT22;65463;43.864;20.136;2023-02-11T08:42:14;103.10;1792.00
55219;DHT22;65463;43.864;20.136;2023-02-11T08:44:41;102.90;1740.80
55219;DHT22;65463;43.864;20.136;2023-02-11T08:47:07;102.90;1740.80
55219;DHT22;65463;43.864;20.136;2023-02-11T08:49:33;103.20;1664.00
55219;DHT22;65463;43.864;20.136;2023-02-11T08:52:00;103.30;1638.40
55219;DHT22;65463;43.864;20.136;2023-02-11T08:54:29;128.00;1664.00
55219;DHT22;65463;43.864;20.136;2023-02-11T08:56:55;103.10;1689.60
55219;DHT22;65463;43.864;20.136;2023-02-11T08:59:22;103.00;1664.00
55219;DHT22;65463;43.864;20.136;2023-02-11T09:01:48;102.80;1715.20
55219;DHT22;65463;43.864;20.136;2023-02-11T09:11:35;128.10;1740.80
55219;DHT22;65463;43.864;20.136;2023-02-11T09:14:03;103.30;1689.60
55219;DHT22;65463;43.864;20.136;2023-02-11T09:16:31;103.30;1740.80
55219;DHT22;65463;43.864;20.136;2023-02-11T09:21:26;128.70;1638.40
55219;DHT22;65463;43.864;20.136;2023-02-11T09:23:55;128.80;1612.80
55219;DHT22;65463;43.864;20.136;2023-02-11T09:26:24;154.00;1817.60
55219;DHT22;65463;43.864;20.136;2023-02-11T09:33:47;154.30;1587.20
55219;DHT22;65463;43.864;20.136;2023-02-11T09:36:22;154.20;1561.60
55219;DHT22;65463;43.864;20.136;2023-02-11T09:46:24;154.20;1587.20
55219;DHT22;65463;43.864;20.136;2023-02-11T09:48:53;154.40;1536.00
55219;DHT22;65463;43.864;20.136;2023-02-11T09:54:03;154.00;1587.20
55219;DHT22;65463;43.864;20.136;2023-02-11T09:56:30;154.50;1612.80
55219;DHT22;65463;43.864;20.136;2023-02-11T09:58:56;154.50;1664.00
55219;DHT22;65463;43.864;20.136;2023-02-11T10:01:59;179.60;1561.60
55219;DHT22;65463;43.864;20.136;2023-02-11T10:27:57;179.80;1561.60
55219;DHT22;65463;43.864;20.136;2023-02-11T10:35:25;153.60;1612.80
55219;DHT22;65463;43.864;20.136;2023-02-11T10:37:52;128.80;1996.80
55219;DHT22;65463;43.864;20.136;2023-02-11T11:26:16;179.90;1510.40
55219;DHT22;65463;43.864;20.136;2023-02-11T11:36:14;230.60;1766.40
55219;DHT22;65463;43.864;20.136;2023-02-11T11:38:53;230.50;1740.80
55219;DHT22;65463;43.864;20.136;2023-02-11T11:41:27;205.50;1689.60
55219;DHT22;65463;43.864;20.136;2023-02-11T11:46:33;231.10;1612.80
55219;DHT22;65463;43.864;20.136;2023-02-11T11:51:53;256.20;1689.60
55219;DHT22;65463;43.864;20.136;2023-02-11T11:54:22;231.30;1356.80
55219;DHT22;65463;43.864;20.136;2023-02-11T11:57:01;231.30;1459.20
55219;DHT22;65463;43.864;20.136;2023-02-11T11:59:28;256.00;1331.20
55219;DHT22;65463;43.864;20.136;2023-02-11T12:02:25;256.60;1459.20
55219;DHT22;65463;43.864;20.136;2023-02-11T12:05:18;282.00;1689.60
55219;DHT22;65463;43.864;20.136;2023-02-11T12:11:10;282.40;1459.20
55219;DHT22;65463;43.864;20.136;2023-02-11T12:19:16;332.90;1510.40
55219;DHT22;65463;43.864;20.136;2023-02-11T12:38:37;307.50;1408.00
55219;DHT22;65463;43.864;20.136;2023-02-11T12:43:42;307.60;1331.20
55219;DHT22;65463;43.864;20.136;2023-02-11T12:46:33;307.50;1356.80
55219;DHT22;65463;43.864;20.136;2023-02-11T12:57:24;281.80;1331.20
55219;DHT22;65463;43.864;20.136;2023-02-11T13:00:06;256.40;1305.60
55219;DHT22;65463;43.864;20.136;2023-02-11T13:05:32;256.40;1356.80
55219;DHT22;65463;43.864;20.136;2023-02-11T13:10:39;281.80;1408.00
55219;DHT22;65463;43.864;20.136;2023-02-11T13:16:01;281.70;1356.80
55219;DHT22;65463;43.864;20.136;2023-02-11T13:18:35;281.90;1382.40
55219;DHT22;65463;43.864;20.136;2023-02-11T13:21:17;281.80;1254.40
55219;DHT22;65463;43.864;20.136;2023-02-11T13:23:53;256.50;1305.60
55219;DHT22;65463;43.864;20.136;2023-02-11T13:26:54;256.40;1305.60
55219;DHT22;65463;43.864;20.136;2023-02-11T13:32:09;256.90;1356.80
55219;DHT22;65463;43.864;20.136;2023-02-11T13:37:26;256.50;1356.80
55219;DHT22;65463;43.864;20.136;2023-02-11T13:39:58;282.20;1331.20
55219;DHT22;65463;43.864;20.136;2023-02-11T13:42:25;281.80;1331.20
55219;DHT22;65463;43.864;20.136;2023-02-11T13:47:30;282.10;1382.40
55219;DHT22;65463;43.864;20.136;2023-02-11T14:08:23;282.40;1280.00
55219;DHT22;65463;43.864;20.136;2023-02-11T14:16:21;281.80;1331.20
55219;DHT22;65463;43.864;20.136;2023-02-11T14:23:43;281.60;1331.20
55219;DHT22;65463;43.864;20.136;2023-02-11T14:28:53;256.90;1305.60
55219;DHT22;65463;43.864;20.136;2023-02-11T14:40:08;231.20;1280.00
55219;DHT22;65463;43.864;20.136;2023-02-11T14:42:37;230.80;1356.80
55219;DHT22;65463;43.864;20.136;2023-02-11T14:45:13;230.90;1382.40
55219;DHT22;65463;43.864;20.136;2023-02-11T14:48:02;256.70;1331.20
55219;DHT22;65463;43.864;20.136;2023-02-11T14:50:45;281.60;1331.20
55219;DHT22;65463;43.864;20.136;2023-02-11T14:53:18;281.70;1305.60
55219;DHT22;65463;43.864;20.136;2023-02-11T14:55:48;282.40;1280.00
55219;DHT22;65463;43.864;20.136;2023-02-11T14:58:28;282.10;1280.00
55219;DHT22;65463;43.864;20.136;2023-02-11T15:01:05;282.30;1254.40
55219;DHT22;65463;43.864;20.136;2023-02-11T15:03:49;282.40;1228.80
55219;DHT22;65463;43.864;20.136;2023-02-11T15:11:19;307.50;1228.80
55219;DHT22;65463;43.864;20.136;2023-02-11T15:13:45;307.30;1228.80
55219;DHT22;65463;43.864;20.136;2023-02-11T15:16:16;282.40;1203.20
55219;DHT22;65463;43.864;20.136;2023-02-11T15:18:56;282.20;1228.80
55219;DHT22;65463;43.864;20.136;2023-02-11T15:21:25;282.00;1254.40
55219;DHT22;65463;43.864;20.136;2023-02-11T15:26:31;256.40;1356.80
55219;DHT22;65463;43.864;20.136;2023-02-11T15:28:57;256.10;1356.80
55219;DHT22;65463;43.864;20.136;2023-02-11T15:31:25;231.30;1356.80
55219;DHT22;65463;43.864;20.136;2023-02-11T18:56:34;51.20;2227.20
55219;DHT22;65463;43.864;20.136;2023-02-11T18:58:59;26.30;2201.60
55219;DHT22;65463;43.864;20.136;2023-02-11T19:01:27;25.90;2201.60
55219;DHT22;65463;43.864;20.136;2023-02-11T19:03:55;25.90;2201.60
55219;DHT22;65463;43.864;20.136;2023-02-11T19:06:27;26.10;2201.60
55219;DHT22;65463;43.864;20.136;2023-02-11T19:08:55;26.30;2201.60
55219;DHT22;65463;43.864;20.136;2023-02-11T19:11:22;26.30;2201.60
55219;DHT22;65463;43.864;20.136;2023-02-11T19:14:08;26.40;2201.60
55219;DHT22;65463;43.864;20.136;2023-02-11T19:16:39;26.40;2201.60
55219;DHT22;65463;43.864;20.136;2023-02-11T19:19:05;26.40;2201.60
55219;DHT22;65463;43.864;20.136;2023-02-11T19:21:32;25.90;2201.60
55219;DHT22;65463;43.864;20.136;2023-02-11T19:23:58;25.90;2201.60
55219;DHT22;65463;43.864;20.136;2023-02-11T19:26:28;25.60;2201.60
55219;DHT22;65463;43.864;20.136;2023-02-11T19:28:54;0.80;2201.60
55219;DHT22;65463;43.864;20.136;2023-02-11T19:31:20;0.50;2201.60
55219;DHT22;65463;43.864;20.136;2023-02-11T19:33:46;0.50;2201.60
55219;DHT22;65463;43.864;20.136;2023-02-11T19:36:12;0.50;2201.60
55219;DHT22;65463;43.864;20.136;2023-02-11T20:42:23;13.10;2201.60
55219;DHT22;65463;43.864;20.136;2023-02-11T20:59:27;0.00;2201.60
55219;DHT22;65463;43.864;20.136;2023-02-11T21:01:54;13.30;2201.60
55219;DHT22;65463;43.864;20.136;2023-02-11T22:57:32;0.50;2201.60
55219;DHT22;65463;43.864;20.136;2023-02-11T22:59:58;0.50;2201.60
55219;DHT22;65463;43.864;20.136;2023-02-11T23:02:24;0.70;2201.60
